Time;durP1;ratioP1;P1;durP2;ratioP2;P2;SDS_P1;SDS_P2;PMS_P1;PMS_P2;Temp;Humidity;BMP_temperature;BMP_pressure;BME280_temperature;BME280_humidity;BME280_pressure;Samples;Min_cycle;Max_cycle;Signal;HPM_P1;HPM_P2
2022/01/06 00:01:13;;;;;;;22.00;12.20;;;;;;;6.55;65.85;93781.75;2163477;46;20037;-73
2022/01/06 00:03:16;;;;;;;19.02;11.30;;;;;;;6.55;65.97;93806.00;2163733;47;20118;-72
2022/01/06 00:05:18;;;;;;;19.30;12.13;;;;;;;6.69;65.64;93806.38;2164333;39;20408;-70
2022/01/06 00:07:19;;;;;;;19.83;11.90;;;;;;;6.72;65.39;93803.47;2164225;47;20042;-70
2022/01/06 00:09:21;;;;;;;17.88;11.73;;;;;;;6.79;65.11;93804.44;2163867;54;20074;-72
2022/01/06 00:11:24;;;;;;;21.17;12.52;;;;;;;6.93;64.83;93805.66;2163915;47;20030;-73
2022/01/06 00:13:48;;;;;;;18.87;12.00;;;;;;;7.02;64.52;93812.50;2163628;47;20039;-70
2022/01/06 00:24:41;;;;;;;16.80;10.35;;;;;;;7.21;62.96;93810.59;2163141;47;20049;-72
2022/01/06 00:26:44;;;;;;;20.30;12.10;;;;;;;7.18;63.42;93804.72;2164182;47;20038;-71
2022/01/06 00:28:46;;;;;;;17.33;10.70;;;;;;;7.19;63.03;93810.75;2164610;47;20045;-70
2022/01/06 00:30:48;;;;;;;16.30;11.45;;;;;;;7.20;63.06;93804.56;2163581;54;20046;-71
2022/01/06 00:32:49;;;;;;;19.58;10.98;;;;;;;7.20;63.02;93814.97;2164059;54;20030;-71
2022/01/06 00:34:51;;;;;;;17.00;11.05;;;;;;;7.20;62.88;93814.16;2164155;54;20030;-73
2022/01/06 00:36:54;;;;;;;18.80;11.10;;;;;;;7.21;62.92;93806.19;2163112;47;20030;-72
2022/01/06 00:38:56;;;;;;;17.85;11.48;;;;;;;7.22;63.10;93807.81;2164184;54;20031;-70
2022/01/06 00:40:59;;;;;;;17.70;10.93;;;;;;;7.20;63.17;93808.94;2163640;47;20030;-71
2022/01/06 00:43:02;;;;;;;19.90;10.57;;;;;;;7.20;63.14;93814.16;2164180;47;20588;-71
2022/01/06 00:45:05;;;;;;;19.20;10.75;;;;;;;7.22;63.00;93810.41;2164080;46;20038;-71
2022/01/06 00:47:07;;;;;;;15.18;9.68;;;;;;;7.21;62.97;93819.22;2163963;54;20038;-72
2022/01/06 00:49:08;;;;;;;19.05;11.52;;;;;;;7.19;62.88;93815.97;2164453;54;20031;-71
2022/01/06 00:51:10;;;;;;;16.48;10.68;;;;;;;7.08;63.53;93824.88;2163929;47;20038;-72
2022/01/06 00:53:12;;;;;;;17.27;10.40;;;;;;;7.04;63.46;93833.19;2163940;54;20030;-71
2022/01/06 00:55:14;;;;;;;19.95;11.02;;;;;;;6.94;63.85;93828.91;2163766;54;20031;-73
2022/01/06 00:57:16;;;;;;;22.40;11.90;;;;;;;6.83;64.45;93829.19;2163286;47;20034;-71
2022/01/06 00:59:18;;;;;;;19.33;11.60;;;;;;;6.87;64.60;93827.09;2164016;47;20034;-72
2022/01/06 01:01:20;;;;;;;17.48;10.63;;;;;;;6.88;64.22;93832.16;2163451;47;20038;-71
2022/01/06 01:03:22;;;;;;;17.27;10.75;;;;;;;6.92;63.89;93822.22;2163395;47;20039;-71
2022/01/06 01:05:24;;;;;;;20.92;11.07;;;;;;;6.87;64.30;93822.72;2163893;47;20078;-72
2022/01/06 01:07:26;;;;;;;20.85;12.35;;;;;;;6.96;64.16;93839.16;2164012;47;20030;-71
2022/01/06 01:09:30;;;;;;;18.02;11.13;;;;;;;6.99;63.78;93841.47;2163759;54;20046;-72
2022/01/06 01:11:32;;;;;;;;;;;;;;;7.02;63.74;93835.13;2163868;39;20461;-71
2022/01/06 01:13:43;;;;;;;21.33;11.23;;;;;;;6.92;64.03;93825.63;2164247;47;20046;-71
2022/01/06 01:15:49;;;;;;;16.85;10.25;;;;;;;7.01;64.24;93838.69;2163400;47;20074;-72
2022/01/06 01:17:52;;;;;;;16.95;11.23;;;;;;;6.99;63.74;93838.88;2163387;47;20038;-71
2022/01/06 01:19:54;;;;;;;16.25;10.50;;;;;;;7.03;63.77;93839.34;2163902;54;20035;-71
2022/01/06 01:21:56;;;;;;;16.40;10.73;;;;;;;6.87;63.80;93832.31;2163942;54;20427;-71
2022/01/06 01:23:59;;;;;;;20.80;12.10;;;;;;;6.68;64.13;93846.38;2163950;54;20030;-71
2022/01/06 01:26:01;;;;;;;20.23;10.77;;;;;;;6.57;64.39;93839.66;2162964;47;20038;-70
2022/01/06 01:28:04;;;;;;;19.27;11.18;;;;;;;6.56;64.49;93838.88;2164011;47;20031;-70
2022/01/06 01:30:11;;;;;;;18.70;10.95;;;;;;;6.54;64.41;93835.59;2164041;47;20030;-71
2022/01/06 01:32:13;;;;;;;15.23;9.85;;;;;;;6.56;64.48;93833.66;2163176;47;20160;-71
2022/01/06 01:34:21;;;;;;;19.50;11.02;;;;;;;6.62;64.47;93834.81;2164075;46;20584;-71
2022/01/06 01:36:23;;;;;;;17.85;11.13;;;;;;;6.61;64.17;93827.19;2164360;39;20425;-72
2022/01/06 01:38:25;;;;;;;17.88;10.80;;;;;;;6.68;64.05;93826.38;2162580;39;20469;-71
2022/01/06 01:40:27;;;;;;;17.55;10.73;;;;;;;6.66;64.30;93819.69;2162805;47;20063;-71
2022/01/06 01:42:29;;;;;;;18.67;10.25;;;;;;;6.70;63.96;93815.81;2163864;47;20030;-71
2022/01/06 01:44:33;;;;;;;14.35;10.05;;;;;;;6.72;64.37;93817.28;2164109;47;20035;-71
2022/01/06 01:46:42;;;;;;;18.35;10.75;;;;;;;6.70;64.23;93808.00;2163663;47;20031;-71
2022/01/06 01:49:07;;;;;;;17.55;10.05;;;;;;;6.69;64.31;93798.56;2164151;39;20500;-71
2022/01/06 01:51:09;;;;;;;15.07;10.52;;;;;;;6.43;65.03;93811.63;2163803;47;20030;-70
2022/01/06 01:53:11;;;;;;;17.80;10.65;;;;;;;6.39;65.15;93808.53;2163684;47;20030;-71
2022/01/06 01:55:19;;;;;;;19.83;11.77;;;;;;;6.39;64.94;93792.94;2163355;39;20678;-71
2022/01/06 01:57:21;;;;;;;19.70;12.13;;;;;;;6.40;65.08;93802.34;2163783;54;20022;-72
2022/01/06 01:59:23;;;;;;;18.15;11.52;;;;;;;6.10;65.46;93791.47;2163348;47;20549;-71
2022/01/06 02:01:25;;;;;;;20.67;12.75;;;;;;;5.89;66.33;93802.22;2163691;47;20030;-70
2022/01/06 02:03:27;;;;;;;19.17;12.05;;;;;;;5.97;66.36;93811.06;2163205;47;20030;-70
2022/01/06 02:05:29;;;;;;;23.85;13.07;;;;;;;6.05;66.11;93811.91;2163568;47;20037;-71
2022/01/06 02:07:33;;;;;;;21.45;11.75;;;;;;;6.13;65.89;93796.38;2163531;47;20030;-71
2022/01/06 02:09:35;;;;;;;23.05;11.82;;;;;;;6.21;65.75;93813.78;2163313;47;20030;-71
2022/01/06 02:11:38;;;;;;;20.30;12.45;;;;;;;6.27;65.56;93809.78;2163514;47;20086;-72
2022/01/06 02:13:51;;;;;;;22.13;11.60;;;;;;;6.38;65.03;93819.91;2163785;47;20077;-71
2022/01/06 02:15:53;;;;;;;19.85;11.07;;;;;;;6.46;64.76;93825.16;2163744;46;20061;-71
2022/01/06 02:17:55;;;;;;;23.70;13.30;;;;;;;6.31;64.89;93813.69;2163967;47;20038;-71
2022/01/06 02:19:59;;;;;;;22.00;12.38;;;;;;;6.32;64.88;93817.91;2163680;54;20042;-71
2022/01/06 02:22:01;;;;;;;22.42;13.65;;;;;;;6.32;64.89;93810.94;2164296;39;20461;-72
2022/01/06 02:24:02;;;;;;;21.05;11.40;;;;;;;6.33;64.65;93815.16;2164193;39;20517;-72
2022/01/06 02:26:04;;;;;;;23.73;12.15;;;;;;;6.20;64.81;93813.97;2163405;54;20058;-72
2022/01/06 02:28:06;;;;;;;20.23;12.02;;;;;;;6.16;65.21;93834.25;2163960;47;20031;-71
2022/01/06 02:30:09;;;;;;;23.77;13.30;;;;;;;6.17;65.12;93845.47;2163899;47;20557;-71
2022/01/06 02:32:15;;;;;;;20.15;12.85;;;;;;;6.21;65.12;93847.59;2161962;47;20030;-72
2022/01/06 02:34:17;;;;;;;25.45;14.50;;;;;;;6.15;64.68;93836.03;2161384;47;20034;-71
2022/01/06 02:36:20;;;;;;;22.52;13.38;;;;;;;6.12;65.14;93845.94;2163655;47;20062;-71
2022/01/06 02:38:23;;;;;;;25.48;15.55;;;;;;;6.18;65.29;93849.72;2162537;47;20038;-68
2022/01/06 02:40:26;;;;;;;32.07;15.77;;;;;;;6.01;65.78;93843.59;2162939;47;20037;-71
2022/01/06 02:42:30;;;;;;;27.40;14.65;;;;;;;6.00;66.18;93852.34;2163735;47;20034;-71
2022/01/06 02:44:33;;;;;;;25.98;15.05;;;;;;;6.07;65.82;93841.19;2163794;47;20067;-71
2022/01/06 02:46:39;;;;;;;25.65;14.70;;;;;;;6.14;65.45;93839.59;2163559;47;20034;-70
2022/01/06 02:48:42;;;;;;;25.13;14.25;;;;;;;6.14;65.49;93839.59;2163752;47;20031;-71
2022/01/06 02:50:49;;;;;;;25.30;14.23;;;;;;;6.15;65.60;93833.44;2163582;54;20043;-71
2022/01/06 02:52:51;;;;;;;22.80;12.98;;;;;;;6.14;65.30;93842.19;2162896;54;20039;-72
2022/01/06 02:54:53;;;;;;;21.92;12.52;;;;;;;6.12;65.27;93846.72;2163247;47;20034;-70
2022/01/06 02:56:55;;;;;;;24.33;13.18;;;;;;;6.08;65.46;93827.19;2163778;47;20061;-71
2022/01/06 02:58:57;;;;;;;18.42;12.40;;;;;;;6.06;65.69;93823.13;2164267;39;20410;-71
2022/01/06 03:00:59;;;;;;;22.60;12.38;;;;;;;6.06;66.15;93829.13;2162789;47;20052;-73
2022/01/06 03:03:01;;;;;;;20.70;12.00;;;;;;;6.08;65.99;93821.19;2163021;47;20042;-72
2022/01/06 03:05:04;;;;;;;28.20;11.93;;;;;;;6.07;65.87;93825.59;2163610;47;20031;-72
2022/01/06 03:07:07;;;;;;;19.48;12.15;;;;;;;6.14;66.09;93817.97;2163226;39;20423;-70
2022/01/06 03:09:10;;;;;;;20.38;11.77;;;;;;;6.22;65.37;93819.84;2163558;47;20046;-70
2022/01/06 03:11:12;;;;;;;19.97;11.47;;;;;;;6.21;64.73;93820.78;2162504;47;20030;-70
2022/01/06 03:13:14;;;;;;;17.58;11.32;;;;;;;6.28;65.04;93837.41;2163605;47;20074;-71
2022/01/06 03:15:21;;;;;;;24.13;12.02;;;;;;;6.29;65.04;93837.25;2163789;54;20034;-71
2022/01/06 03:17:23;;;;;;;22.95;12.95;;;;;;;6.28;65.08;93822.63;2162913;54;20030;-72
2022/01/06 03:19:25;;;;;;;17.38;11.13;;;;;;;6.23;65.40;93831.84;2163982;39;20508;-72
2022/01/06 03:21:28;;;;;;;20.45;12.10;;;;;;;6.27;65.45;93833.19;2163827;47;20030;-72
2022/01/06 03:23:30;;;;;;;21.40;12.50;;;;;;;6.27;65.11;93844.38;2162709;47;20031;-72
2022/01/06 03:25:32;;;;;;;17.52;11.27;;;;;;;6.06;65.45;93826.53;2163201;54;20053;-70
2022/01/06 03:27:34;;;;;;;19.33;12.63;;;;;;;5.68;66.99;93844.13;2163991;47;20043;-71
2022/01/06 03:29:36;;;;;;;24.80;12.85;;;;;;;5.62;67.21;93842.13;2163635;47;20031;-72
2022/01/06 03:31:38;;;;;;;23.88;13.68;;;;;;;5.70;67.04;93844.78;2163893;47;20031;-72
2022/01/06 03:33:40;;;;;;;21.02;12.45;;;;;;;5.76;67.22;93840.75;2163719;54;20042;-71
2022/01/06 03:35:42;;;;;;;21.98;13.65;;;;;;;5.83;66.63;93844.41;2163499;47;20097;-72
2022/01/06 03:37:44;;;;;;;20.98;12.75;;;;;;;5.88;66.32;93830.94;2163349;47;20092;-72
2022/01/06 03:39:46;;;;;;;20.92;12.63;;;;;;;5.81;66.62;93832.50;2162390;54;20038;-72
2022/01/06 03:41:48;;;;;;;26.40;14.32;;;;;;;5.78;66.51;93845.81;2164430;39;20453;-71
2022/01/06 03:43:50;;;;;;;20.33;12.07;;;;;;;5.82;66.52;93837.56;2164423;47;20039;-71
2022/01/06 03:45:52;;;;;;;21.23;12.40;;;;;;;5.73;66.79;93823.69;2163444;47;20846;-70
2022/01/06 03:47:55;;;;;;;19.50;12.98;;;;;;;5.74;66.93;93838.34;2164258;47;20038;-71
2022/01/06 03:49:57;;;;;;;18.47;12.33;;;;;;;5.74;67.03;93842.69;2164157;47;20030;-70
2022/01/06 03:51:59;;;;;;;20.73;11.85;;;;;;;5.59;67.25;93826.81;2164493;39;20702;-70
2022/01/06 03:54:01;;;;;;;16.73;11.48;;;;;;;5.58;67.64;93833.00;2163898;39;20448;-71
2022/01/06 03:56:03;;;;;;;22.92;11.48;;;;;;;5.44;67.93;93836.94;2163684;54;20030;-72
2022/01/06 03:58:05;;;;;;;18.42;11.70;;;;;;;5.47;68.42;93847.03;2164190;47;20039;-71
2022/01/06 04:00:10;;;;;;;19.60;10.77;;;;;;;5.51;68.02;93844.97;2164311;47;20135;-70
2022/01/06 04:02:12;;;;;;;21.60;11.32;;;;;;;5.59;67.69;93859.78;2163931;54;20037;-70
2022/01/06 04:04:14;;;;;;;18.73;11.55;;;;;;;5.68;67.38;93859.72;2163604;46;20126;-71
2022/01/06 04:06:16;;;;;;;22.70;12.05;;;;;;;5.75;67.28;93846.94;2164057;47;20046;-70
2022/01/06 04:08:18;;;;;;;20.48;11.70;;;;;;;5.68;67.16;93857.13;2164057;47;20540;-71
2022/01/06 04:10:20;;;;;;;19.67;11.52;;;;;;;5.73;67.43;93862.66;2163766;47;20030;-70
2022/01/06 04:12:22;;;;;;;19.48;10.68;;;;;;;5.77;67.29;93842.41;2164232;47;20053;-70
2022/01/06 04:14:24;;;;;;;19.30;12.27;;;;;;;5.81;66.77;93856.75;2164532;47;20053;-70
2022/01/06 04:16:27;;;;;;;17.20;10.18;;;;;;;5.80;66.80;93852.50;2164326;54;20030;-70
2022/01/06 04:18:29;;;;;;;19.45;10.93;;;;;;;5.83;66.31;93849.59;2164862;31;20539;-71
2022/01/06 04:20:31;;;;;;;16.27;10.55;;;;;;;5.78;66.69;93844.03;2164219;47;20576;-72
2022/01/06 04:22:34;;;;;;;17.67;11.07;;;;;;;5.78;66.97;93854.41;2164128;46;20034;-72
2022/01/06 04:24:36;;;;;;;17.33;10.10;;;;;;;5.72;66.81;93857.63;2164063;47;20075;-71
2022/01/06 04:26:38;;;;;;;19.27;11.23;;;;;;;5.77;66.96;93859.78;2164252;46;20557;-71
2022/01/06 04:28:40;;;;;;;23.50;12.23;;;;;;;5.71;66.89;93867.19;2164645;39;20419;-72
2022/01/06 04:30:42;;;;;;;17.25;9.98;;;;;;;5.63;67.64;93872.31;2164076;54;20038;-71
2022/01/06 04:32:44;;;;;;;19.48;10.95;;;;;;;5.66;67.49;93874.66;2164302;47;20037;-71
2022/01/06 04:34:46;;;;;;;20.30;10.90;;;;;;;5.52;67.86;93886.34;2163557;47;20568;-72
2022/01/06 04:36:53;;;;;;;17.83;11.90;;;;;;;5.57;67.53;93872.09;2164337;47;20054;-71
2022/01/06 04:38:54;;;;;;;19.27;11.35;;;;;;;5.45;67.83;93893.13;2164117;54;20588;-72
2022/01/06 04:40:56;;;;;;;16.55;10.23;;;;;;;5.39;68.37;93891.09;2162758;47;20037;-72
2022/01/06 04:42:59;;;;;;;16.60;10.55;;;;;;;5.46;68.38;93896.53;2164085;46;20034;-72
2022/01/06 04:45:01;;;;;;;15.95;10.55;;;;;;;5.51;68.00;93892.53;2164196;46;20620;-70
2022/01/06 04:47:03;;;;;;;19.58;11.18;;;;;;;5.38;68.07;93871.31;2163919;46;20046;-73
2022/01/06 04:49:05;;;;;;;19.52;11.52;;;;;;;5.39;68.39;93908.47;2164090;54;20044;-71
2022/01/06 04:51:08;;;;;;;22.33;10.57;;;;;;;5.42;68.26;93900.38;2163574;47;20537;-71
2022/01/06 04:53:09;;;;;;;18.75;10.77;;;;;;;5.42;68.35;93895.19;2163934;54;20038;-70
2022/01/06 04:55:12;;;;;;;21.83;11.50;;;;;;;5.42;68.17;93900.38;2163012;54;20031;-71
2022/01/06 04:57:14;;;;;;;21.17;12.13;;;;;;;5.43;67.82;93883.84;2164111;54;20030;-72
2022/01/06 04:59:16;;;;;;;19.75;11.02;;;;;;;5.44;68.24;93896.69;2163964;39;20771;-72
2022/01/06 05:01:18;;;;;;;18.27;10.30;;;;;;;5.44;68.10;93891.50;2163889;54;20050;-72
2022/01/06 05:03:20;;;;;;;19.08;10.70;;;;;;;5.47;68.06;93901.56;2163528;47;20038;-70
2022/01/06 05:05:22;;;;;;;18.42;10.85;;;;;;;5.50;67.81;93893.47;2163844;47;20037;-71
2022/01/06 05:07:23;;;;;;;20.30;11.25;;;;;;;5.54;68.01;93894.81;2163999;47;20074;-71
2022/01/06 05:09:26;;;;;;;18.30;11.10;;;;;;;5.59;67.43;93899.56;2163710;47;20055;-72
2022/01/06 05:11:28;;;;;;;19.40;11.63;;;;;;;5.65;67.13;93892.97;2164039;47;20035;-70
2022/01/06 05:13:30;;;;;;;18.88;10.45;;;;;;;5.72;67.19;93887.03;2164003;47;20034;-71
2022/01/06 05:15:32;;;;;;;16.92;11.18;;;;;;;5.64;67.45;93894.75;2163736;47;20121;-73
2022/01/06 05:17:34;;;;;;;21.25;11.85;;;;;;;5.61;67.70;93881.25;2163949;47;20030;-69
2022/01/06 05:19:36;;;;;;;18.65;11.32;;;;;;;5.66;67.48;93894.63;2163809;47;20742;-71
2022/01/06 05:21:39;;;;;;;16.33;10.93;;;;;;;5.66;67.23;93890.22;2163947;47;20038;-72
2022/01/06 05:23:41;;;;;;;15.65;9.43;;;;;;;5.69;67.36;93900.31;2164142;39;20469;-72
2022/01/06 05:25:43;;;;;;;17.75;11.27;;;;;;;5.66;67.32;93886.81;2163355;47;20053;-72
2022/01/06 05:27:45;;;;;;;18.95;11.80;;;;;;;5.60;67.68;93880.44;2163943;54;20034;-72
2022/01/06 05:29:47;;;;;;;20.75;12.43;;;;;;;5.64;67.82;93899.97;2164007;47;20030;-71
2022/01/06 05:31:49;;;;;;;19.67;10.80;;;;;;;5.68;67.59;93900.50;2163896;54;20082;-72
2022/01/06 05:33:51;;;;;;;16.50;10.63;;;;;;;5.74;67.56;93900.69;2163897;54;20056;-71
2022/01/06 05:35:53;;;;;;;20.27;12.10;;;;;;;5.56;67.81;93897.28;2164059;47;20038;-70
2022/01/06 05:37:55;;;;;;;18.98;11.50;;;;;;;5.60;68.09;93911.59;2163662;54;20038;-71
2022/01/06 05:39:57;;;;;;;16.92;10.85;;;;;;;5.63;67.92;93902.69;2163421;47;20046;-71
2022/01/06 05:41:59;;;;;;;32.35;17.30;;;;;;;5.70;67.93;93895.94;2162547;39;20482;-70
2022/01/06 05:44:01;;;;;;;20.98;12.55;;;;;;;5.78;67.77;93906.41;2163755;47;20042;-71
2022/01/06 05:46:04;;;;;;;22.23;13.70;;;;;;;5.75;67.82;93902.31;2163574;54;20081;-72
2022/01/06 05:48:06;;;;;;;19.08;11.13;;;;;;;5.66;68.15;93898.03;2163548;46;20518;-72
2022/01/06 05:50:08;;;;;;;22.05;11.85;;;;;;;5.65;68.00;93891.19;2163410;54;20053;-72
2022/01/06 05:52:10;;;;;;;21.45;10.65;;;;;;;5.37;69.39;93889.63;2163504;54;20600;-72
2022/01/06 05:54:12;;;;;;;21.95;10.27;;;;;;;5.44;69.30;93896.69;2163852;47;20105;-71
2022/01/06 05:56:14;;;;;;;19.95;12.90;;;;;;;5.56;69.04;93920.66;2163089;54;20589;-72
2022/01/06 05:58:16;;;;;;;23.77;14.10;;;;;;;5.57;68.74;93895.50;2163960;47;20049;-71
2022/01/06 06:00:18;;;;;;;20.17;12.35;;;;;;;5.57;68.70;93898.94;2163872;47;20030;-71
2022/01/06 06:02:22;;;;;;;19.98;11.85;;;;;;;5.56;69.15;93899.06;2163349;47;20030;-71
2022/01/06 06:04:24;;;;;;;18.13;11.57;;;;;;;5.61;68.84;93900.25;2163780;47;20030;-70
2022/01/06 06:06:26;;;;;;;16.45;10.95;;;;;;;5.71;68.57;93897.56;2163683;47;20038;-71
2022/01/06 06:08:28;;;;;;;18.63;12.45;;;;;;;5.71;68.51;93905.38;2163509;47;20154;-73
2022/01/06 06:10:30;;;;;;;23.60;12.68;;;;;;;5.72;68.65;93894.84;2163249;47;20030;-71
2022/01/06 06:12:32;;;;;;;21.63;13.70;;;;;;;5.71;68.05;93905.38;2164186;39;20289;-72
2022/01/06 06:14:33;;;;;;;25.92;16.42;;;;;;;5.80;68.00;93909.66;2163769;54;20045;-70
2022/01/06 06:16:36;;;;;;;20.20;14.38;;;;;;;5.89;67.88;93905.34;2163733;47;20115;-71
2022/01/06 06:18:38;;;;;;;23.80;15.15;;;;;;;5.95;67.66;93899.59;2163803;47;20030;-72
2022/01/06 06:20:40;;;;;;;22.48;14.68;;;;;;;6.02;67.35;93911.00;2163925;47;20039;-72
2022/01/06 06:22:42;;;;;;;21.92;14.10;;;;;;;6.03;67.13;93912.66;2163637;54;20030;-73
2022/01/06 06:24:47;;;;;;;22.75;13.63;;;;;;;6.10;66.88;93903.28;2163324;54;20054;-71
2022/01/06 06:26:50;;;;;;;24.27;14.05;;;;;;;6.09;66.65;93917.25;2163699;47;20030;-71
2022/01/06 06:28:52;;;;;;;21.80;13.03;;;;;;;6.15;66.68;93914.06;2163129;47;20038;-72
2022/01/06 06:30:54;;;;;;;24.02;14.15;;;;;;;6.08;66.87;93912.19;2163658;54;20031;-71
2022/01/06 06:32:55;;;;;;;23.75;12.90;;;;;;;6.06;67.13;93925.34;2163180;47;20053;-73
2022/01/06 06:34:57;;;;;;;22.58;12.60;;;;;;;6.07;66.85;93913.19;2163662;47;20038;-72
2022/01/06 06:36:59;;;;;;;21.38;12.23;;;;;;;6.11;66.78;93920.53;2163610;54;20045;-73
2022/01/06 06:39:01;;;;;;;19.70;12.18;;;;;;;6.17;66.63;93913.88;2163571;47;20109;-72
2022/01/06 06:41:03;;;;;;;28.25;17.48;;;;;;;5.65;67.89;93909.38;2163118;47;20038;-72
2022/01/06 06:43:05;;;;;;;23.88;14.93;;;;;;;5.65;68.11;93919.75;2162511;47;20030;-73
2022/01/06 06:45:08;;;;;;;29.02;14.45;;;;;;;5.65;68.50;93916.34;2163456;54;20053;-73
2022/01/06 06:47:10;;;;;;;22.60;13.43;;;;;;;5.72;68.13;93946.81;2163139;54;20038;-72
2022/01/06 06:49:15;;;;;;;21.80;13.60;;;;;;;5.34;69.51;93914.13;2163780;47;20030;-73
2022/01/06 06:51:17;;;;;;;23.98;12.75;;;;;;;5.49;69.65;93945.59;2163833;54;20676;-72
2022/01/06 06:53:19;;;;;;;24.40;14.05;;;;;;;5.22;70.42;93921.28;2163565;47;20038;-73
2022/01/06 06:55:21;;;;;;;20.35;12.82;;;;;;;5.33;70.59;93941.03;2163256;47;20058;-72
2022/01/06 06:57:23;;;;;;;21.55;13.32;;;;;;;5.38;69.99;93906.81;2163654;39;20426;-71
2022/01/06 06:59:25;;;;;;;19.70;11.57;;;;;;;5.55;70.10;93932.03;2163683;47;20037;-73
2022/01/06 07:01:27;;;;;;;22.60;13.25;;;;;;;5.66;69.80;93915.41;2163441;47;20054;-71
2022/01/06 07:03:29;;;;;;;20.73;12.07;;;;;;;5.70;69.56;93927.94;2163032;47;20544;-72
2022/01/06 07:05:31;;;;;;;21.52;12.57;;;;;;;5.81;69.00;93918.28;2163082;54;20053;-72
2022/01/06 07:07:33;;;;;;;19.33;12.32;;;;;;;5.96;68.69;93919.44;2163794;39;20644;-73
2022/01/06 07:09:35;;;;;;;23.58;13.52;;;;;;;6.10;68.40;93918.88;2163172;47;20045;-73
2022/01/06 07:11:37;;;;;;;25.27;13.57;;;;;;;6.11;68.07;93930.13;2163458;47;20569;-72
2022/01/06 07:13:39;;;;;;;27.52;12.65;;;;;;;6.09;68.02;93938.06;2163489;47;20046;-72
2022/01/06 07:15:41;;;;;;;19.25;12.75;;;;;;;6.28;68.11;93955.28;2163834;47;20062;-72
2022/01/06 07:17:43;;;;;;;27.60;13.75;;;;;;;5.90;68.98;93935.59;2163306;47;20062;-72
2022/01/06 07:19:45;;;;;;;25.17;13.65;;;;;;;5.86;69.46;93947.25;2164333;47;20081;-71
2022/01/06 07:21:47;;;;;;;28.38;13.90;;;;;;;6.04;68.89;93955.06;2164367;47;20029;-73
2022/01/06 07:23:49;;;;;;;19.52;12.15;;;;;;;5.90;69.19;93938.19;2164083;54;20061;-72
2022/01/06 07:25:51;;;;;;;25.40;14.00;;;;;;;6.06;68.93;93938.34;2163797;47;20034;-71
2022/01/06 07:27:53;;;;;;;24.75;13.23;;;;;;;6.31;68.69;93952.38;2164474;47;20034;-70
2022/01/06 07:29:55;;;;;;;21.23;13.55;;;;;;;6.42;67.84;93933.09;2163514;54;20037;-72
2022/01/06 07:31:57;;;;;;;25.77;13.77;;;;;;;6.64;67.11;93947.38;2163887;47;20042;-71
2022/01/06 07:33:59;;;;;;;21.83;13.27;;;;;;;6.90;66.69;93960.38;2163495;47;20037;-71
2022/01/06 07:36:01;;;;;;;21.75;13.00;;;;;;;7.09;65.60;93948.09;2164025;46;20054;-73
2022/01/06 07:38:03;;;;;;;26.42;12.43;;;;;;;7.20;65.40;93942.59;2163969;47;20037;-71
2022/01/06 07:40:06;;;;;;;23.33;12.52;;;;;;;7.26;64.90;93946.38;2163781;47;20593;-71
2022/01/06 07:42:08;;;;;;;21.00;12.35;;;;;;;7.30;64.78;93955.53;2164161;47;20085;-72
2022/01/06 07:44:10;;;;;;;21.98;12.43;;;;;;;7.29;64.29;93954.72;2162401;46;20036;-72
2022/01/06 07:46:12;;;;;;;21.70;12.65;;;;;;;7.05;65.11;93960.63;2163208;54;20034;-71
2022/01/06 07:48:19;;;;;;;24.92;12.80;;;;;;;6.98;65.90;93963.03;2164233;47;20030;-72
2022/01/06 07:50:23;;;;;;;21.15;12.48;;;;;;;7.13;65.43;93952.84;2164082;47;20050;-71
2022/01/06 07:52:25;;;;;;;23.42;12.88;;;;;;;7.35;64.39;93951.47;2163929;47;20030;-70
2022/01/06 07:54:27;;;;;;;23.10;12.45;;;;;;;7.44;64.00;93967.13;2163481;51;20074;-73
2022/01/06 07:56:29;;;;;;;27.48;13.43;;;;;;;7.55;63.73;93966.81;2164093;47;20037;-72
2022/01/06 07:58:31;;;;;;;22.10;12.02;;;;;;;7.71;63.74;93973.91;2163637;54;20030;-71
2022/01/06 08:00:33;;;;;;;24.02;13.00;;;;;;;7.89;62.90;93958.13;2163571;54;20045;-74
2022/01/06 08:02:34;;;;;;;21.92;11.63;;;;;;;7.46;63.47;93959.97;2164112;47;20158;-71
2022/01/06 08:04:55;;;;;;;18.50;11.68;;;;;;;7.29;64.48;93980.78;2163905;54;20030;-73
2022/01/06 08:06:57;;;;;;;23.65;12.55;;;;;;;7.56;64.17;93981.50;2164024;47;20030;-73
2022/01/06 08:08:59;;;;;;;24.38;11.40;;;;;;;7.83;63.37;93971.78;2164135;47;20553;-72
2022/01/06 08:11:01;;;;;;;23.02;11.52;;;;;;;7.99;62.34;93980.47;2163529;47;20078;-71
2022/01/06 08:13:03;;;;;;;23.00;11.75;;;;;;;8.19;62.25;93985.38;2163855;46;20038;-72
2022/01/06 08:15:06;;;;;;;16.73;11.15;;;;;;;8.17;61.34;93977.72;2163996;47;20034;-71
